Time,TemperatureF,DewpointF,PressureIn,WindDirection,WindDirectionDegrees,WindSpeedMPH,WindSpeedGustMPH,Humidity,HourlyPrecipIn,Conditions,Clouds,dailyrainin,SoftwareType,DateUTC
2013-07-17 00:04:00,52.8,49.9,30.10,East,87,6.0,7.0,90,0.00,,,0.00,Wunderground v.1.15,2013-07-17 08:04:00,
2013-07-17 00:10:00,52.8,50.2,30.10,ENE,76,6.0,6.0,91,0.00,,,0.00,Wunderground v.1.15,2013-07-17 08:10:00,
2013-07-17 00:15:00,52.8,50.2,30.10,East,86,6.0,7.0,91,0.00,,,0.00,Wunderground v.1.15,2013-07-17 08:15:00,
2013-07-17 00:21:00,52.8,50.2,30.10,NE,49,6.0,6.0,91,0.00,,,0.00,Wunderground v.1.15,2013-07-17 08:21:00,
2013-07-17 00:28:00,52.8,50.2,30.10,East,84,5.0,7.0,91,0.00,,,0.00,Wunderground v.1.15,2013-07-17 08:28:00,
2013-07-17 00:33:00,53.0,50.4,30.10,East,90,6.0,7.0,91,0.00,,,0.00,Wunderground v.1.15,2013-07-17 08:33:00,
2013-07-17 00:39:00,53.2,50.3,30.10,NE,46,6.0,6.0,90,0.00,,,0.00,Wunderground v.1.15,2013-07-17 08:39:00,
2013-07-17 00:45:00,53.2,50.3,30.10,ENE,78,6.0,7.0,90,0.00,,,0.00,Wunderground v.1.15,2013-07-17 08:45:00,
2013-07-17 00:51:00,53.1,50.2,30.10,NE,56,5.0,6.0,90,0.00,,,0.00,Wunderground v.1.15,2013-07-17 08:51:00,
2013-07-17 00:56:00,53.0,50.4,30.10,East,80,4.0,6.0,91,0.00,,,0.00,Wunderground v.1.15,2013-07-17 08:56:00,
2013-07-17 01:02:00,53.0,50.4,30.10,ESE,106,4.0,4.0,91,0.00,,,0.00,Wunderground v.1.15,2013-07-17 09:02:00,
2013-07-17 01:08:00,52.9,50.3,30.10,ENE,61,4.0,6.0,91,0.00,,,0.00,Wunderground v.1.15,2013-07-17 09:08:00,
2013-07-17 01:14:00,52.9,50.3,30.10,ENE,77,5.0,8.0,91,0.00,,,0.00,Wunderground v.1.15,2013-07-17 09:14:00,
2013-07-17 01:19:00,52.9,50.3,30.10,ENE,70,6.0,6.0,91,0.00,,,0.00,Wunderground v.1.15,2013-07-17 09:19:00,
2013-07-17 01:25:00,53.0,50.4,30.10,ENE,70,7.0,9.0,91,0.00,,,0.00,Wunderground v.1.15,2013-07-17 09:25:00,
2013-07-17 01:32:00,53.2,50.3,30.10,East,84,7.0,7.0,90,0.00,,,0.00,Wunderground v.1.15,2013-07-17 09:32:00,
2013-07-17 01:38:00,53.4,50.5,30.10,ENE,73,8.0,10.0,90,0.00,,,0.00,Wunderground v.1.15,2013-07-17 09:38:00,
2013-07-17 01:39:00,53.4,50.5,30.10,ENE,77,8.0,10.0,90,0.00,,,0.00,Wunderground v.1.15,2013-07-17 09:39:00,
2013-07-17 01:44:00,53.5,50.6,30.10,ENE,78,8.0,10.0,90,0.00,,,0.00,Wunderground v.1.15,2013-07-17 09:44:00,
2013-07-17 01:50:00,53.4,50.5,30.10,ENE,68,7.0,8.0,90,0.00,,,0.00,Wunderground v.1.15,2013-07-17 09:50:00,
2013-07-17 01:56:00,53.3,50.4,30.10,NE,56,7.0,8.0,90,0.00,,,0.00,Wunderground v.1.15,2013-07-17 09:56:00,
2013-07-17 02:01:00,53.4,50.5,30.10,ENE,70,7.0,7.0,90,0.00,,,0.00,Wunderground v.1.15,2013-07-17 10:01:00,
2013-07-17 02:07:00,53.3,50.4,30.10,ENE,63,5.0,7.0,90,0.00,,,0.00,Wunderground v.1.15,2013-07-17 10:07:00,
2013-07-17 02:13:00,53.0,50.1,30.09,ENE,69,5.0,6.0,90,0.00,,,0.00,Wunderground v.1.15,2013-07-17 10:13:00,
2013-07-17 02:19:00,53.0,50.4,30.09,ENE,67,5.0,6.0,91,0.00,,,0.00,Wunderground v.1.15,2013-07-17 10:19:00,
2013-07-17 02:24:00,53.0,50.4,30.09,ENE,57,4.0,6.0,91,0.00,,,0.00,Wunderground v.1.15,2013-07-17 10:24:00,
2013-07-17 02:30:00,52.8,50.2,30.09,ENE,77,5.0,7.0,91,0.00,,,0.00,Wunderground v.1.15,2013-07-17 10:30:00,
2013-07-17 02:36:00,52.7,50.1,30.09,ENE,63,5.0,7.0,91,0.00,,,0.00,Wunderground v.1.15,2013-07-17 10:36:00,
2013-07-17 02:42:00,52.7,50.4,30.09,ENE,58,4.0,6.0,92,0.00,,,0.00,Wunderground v.1.15,2013-07-17 10:42:00,
2013-07-17 02:47:00,52.5,50.2,30.09,NE,46,5.0,8.0,92,0.00,,,0.00,Wunderground v.1.15,2013-07-17 10:47:00,
2013-07-17 02:53:00,52.3,50.0,30.09,East,82,4.0,5.0,92,0.00,,,0.00,Wunderground v.1.15,2013-07-17 10:53:00,
2013-07-17 02:59:00,52.5,50.5,30.09,East,79,4.0,4.0,93,0.00,,,0.00,Wunderground v.1.15,2013-07-17 10:59:00,
2013-07-17 03:05:00,52.7,50.4,30.09,ENE,72,5.0,6.0,92,0.00,,,0.00,Wunderground v.1.15,2013-07-17 11:05:00,
2013-07-17 03:10:00,52.7,50.4,30.09,ENE,67,5.0,6.0,92,0.00,,,0.00,Wunderground v.1.15,2013-07-17 11:10:00,
2013-07-17 03:16:00,52.6,50.3,30.09,ENE,77,5.0,7.0,92,0.00,,,0.00,Wunderground v.1.15,2013-07-17 11:16:00,
2013-07-17 03:23:00,52.6,50.6,30.09,ENE,58,5.0,5.0,93,0.00,,,0.00,Wunderground v.1.15,2013-07-17 11:23:00,
2013-07-17 03:28:00,52.5,50.5,30.09,East,80,4.0,6.0,93,0.00,,,0.00,Wunderground v.1.15,2013-07-17 11:28:00,
2013-07-17 03:34:00,52.5,50.5,30.09,ENE,67,4.0,5.0,93,0.00,,,0.00,Wunderground v.1.15,2013-07-17 11:34:00,
2013-07-17 03:40:00,52.6,50.6,30.09,ENE,68,4.0,4.0,93,0.00,,,0.00,Wunderground v.1.15,2013-07-17 11:40:00,
2013-07-17 03:46:00,52.5,50.5,30.09,East,84,3.0,4.0,93,0.00,,,0.00,Wunderground v.1.15,2013-07-17 11:46:00,
2013-07-17 03:52:00,52.5,50.5,30.09,ENE,65,3.0,3.0,93,0.00,,,0.00,Wunderground v.1.15,2013-07-17 11:52:00,
2013-07-17 03:57:00,52.6,50.6,30.09,NE,56,3.0,4.0,93,0.00,,,0.00,Wunderground v.1.15,2013-07-17 11:57:00,
2013-07-17 04:03:00,52.8,50.8,30.08,ENE,71,3.0,4.0,93,0.00,,,0.00,Wunderground v.1.15,2013-07-17 12:03:00,
2013-07-17 04:09:00,52.9,50.9,30.09,ENE,64,4.0,5.0,93,0.00,,,0.00,Wunderground v.1.15,2013-07-17 12:09:00,
2013-07-17 04:14:00,53.1,51.1,30.08,ENE,71,4.0,5.0,93,0.00,,,0.00,Wunderground v.1.15,2013-07-17 12:14:00,
2013-07-17 04:20:00,53.3,51.3,30.08,ENE,68,3.0,3.0,93,0.00,,,0.00,Wunderground v.1.15,2013-07-17 12:20:00,
2013-07-17 04:26:00,53.5,51.5,30.08,NE,51,3.0,4.0,93,0.00,,,0.00,Wunderground v.1.15,2013-07-17 12:26:00,
2013-07-17 04:32:00,53.5,51.2,30.08,ENE,73,3.0,4.0,92,0.00,,,0.00,Wunderground v.1.15,2013-07-17 12:32:00,
2013-07-17 04:38:00,53.6,51.3,30.08,ENE,58,3.0,4.0,92,0.00,,,0.00,Wunderground v.1.15,2013-07-17 12:38:00,
2013-07-17 04:43:00,53.7,51.4,30.08,East,82,3.0,6.0,92,0.00,,,0.00,Wunderground v.1.15,2013-07-17 12:43:00,
2013-07-17 04:48:00,53.7,51.4,30.08,NE,56,4.0,6.0,92,0.00,,,0.00,Wunderground v.1.15,2013-07-17 12:48:00,
2013-07-17 04:54:00,53.7,51.4,30.08,East,79,3.0,4.0,92,0.00,,,0.00,Wunderground v.1.15,2013-07-17 12:54:00,
2013-07-17 05:00:00,53.9,51.9,30.08,ENE,67,3.0,5.0,93,0.00,,,0.00,Wunderground v.1.15,2013-07-17 13:00:00,
2013-07-17 05:05:00,54.1,51.8,30.08,ENE,74,4.0,5.0,92,0.00,,,0.00,Wunderground v.1.15,2013-07-17 13:05:00,
2013-07-17 05:11:00,54.3,52.0,30.08,ENE,74,4.0,4.0,92,0.00,,,0.00,Wunderground v.1.15,2013-07-17 13:11:00,
2013-07-17 05:18:00,54.4,52.1,30.08,ENE,59,3.0,6.0,92,0.00,,,0.00,Wunderground v.1.15,2013-07-17 13:18:00,
2013-07-17 05:23:00,54.5,52.2,30.07,NE,56,3.0,4.0,92,0.00,,,0.00,Wunderground v.1.15,2013-07-17 13:23:00,
2013-07-17 05:29:00,54.6,52.0,30.08,NE,41,3.0,3.0,91,0.00,,,0.00,Wunderground v.1.15,2013-07-17 13:29:00,
2013-07-17 05:35:00,54.5,51.9,30.07,NE,49,2.0,4.0,91,0.00,,,0.00,Wunderground v.1.15,2013-07-17 13:35:00,
2013-07-17 05:41:00,54.5,52.2,30.07,NE,44,3.0,3.0,92,0.00,,,0.00,Wunderground v.1.15,2013-07-17 13:41:00,
2013-07-17 05:46:00,54.6,52.3,30.07,NE,56,2.0,3.0,92,0.00,,,0.00,Wunderground v.1.15,2013-07-17 13:46:00,
2013-07-17 05:52:00,54.6,52.0,30.08,NE,54,3.0,3.0,91,0.00,,,0.00,Wunderground v.1.15,2013-07-17 13:52:00,
2013-07-17 05:58:00,54.6,52.3,30.07,ENE,65,2.0,3.0,92,0.00,,,0.00,Wunderground v.1.15,2013-07-17 13:58:00,
2013-07-17 06:04:00,54.7,52.4,30.07,ENE,74,1.0,11.0,92,0.00,,,0.00,Wunderground v.1.15,2013-07-17 14:04:00,
2013-07-17 06:09:00,54.8,52.5,30.07,ENE,65,2.0,11.0,92,0.00,,,0.00,Wunderground v.1.15,2013-07-17 14:09:00,
2013-07-17 06:15:00,54.9,52.6,30.07,NE,53,2.0,11.0,92,0.00,,,0.00,Wunderground v.1.15,2013-07-17 14:15:00,
2013-07-17 06:22:00,55.1,52.5,30.07,ENE,77,4.0,11.0,91,0.00,,,0.00,Wunderground v.1.15,2013-07-17 14:22:00,
2013-07-17 06:27:00,55.3,52.7,30.07,ENE,68,4.0,11.0,91,0.00,,,0.00,Wunderground v.1.15,2013-07-17 14:27:00,
2013-07-17 06:33:00,55.4,52.8,30.07,ENE,76,3.0,11.0,91,0.00,,,0.00,Wunderground v.1.15,2013-07-17 14:33:00,
2013-07-17 06:39:00,55.4,52.8,30.07,NE,49,3.0,11.0,91,0.00,,,0.00,Wunderground v.1.15,2013-07-17 14:39:00,
2013-07-17 06:45:00,55.5,52.9,30.08,East,79,3.0,11.0,91,0.00,,,0.00,Wunderground v.1.15,2013-07-17 14:45:00,
2013-07-17 06:51:00,55.7,53.1,30.07,ENE,71,3.0,11.0,91,0.00,,,0.00,Wunderground v.1.15,2013-07-17 14:51:00,
2013-07-17 06:56:00,55.8,53.2,30.08,ENE,62,3.0,11.0,91,0.00,,,0.00,Wunderground v.1.15,2013-07-17 14:56:00,
2013-07-17 07:02:00,55.9,53.3,30.08,ENE,73,3.0,11.0,91,0.00,,,0.00,Wunderground v.1.15,2013-07-17 15:02:00,
2013-07-17 07:09:00,56.0,53.4,30.08,ENE,77,3.0,11.0,91,0.00,,,0.00,Wunderground v.1.15,2013-07-17 15:09:00,
2013-07-17 07:14:00,56.2,53.6,30.08,ENE,71,4.0,11.0,91,0.00,,,0.00,Wunderground v.1.15,2013-07-17 15:14:00,
2013-07-17 07:20:00,56.3,53.7,30.07,ENE,75,4.0,11.0,91,0.00,,,0.00,Wunderground v.1.15,2013-07-17 15:20:00,
2013-07-17 07:26:00,56.3,53.7,30.07,NE,56,2.0,11.0,91,0.00,,,0.00,Wunderground v.1.15,2013-07-17 15:26:00,
2013-07-17 07:32:00,56.5,53.6,30.07,NE,50,2.0,11.0,90,0.00,,,0.00,Wunderground v.1.15,2013-07-17 15:32:00,
2013-07-17 07:37:00,56.7,53.8,30.07,NE,49,2.0,11.0,90,0.00,,,0.00,Wunderground v.1.15,2013-07-17 15:37:00,
2013-07-17 07:43:00,56.8,53.9,30.07,ENE,63,2.0,11.0,90,0.00,,,0.00,Wunderground v.1.15,2013-07-17 15:43:00,
2013-07-17 07:49:00,57.0,54.1,30.07,NE,54,3.0,3.0,90,0.00,,,0.00,Wunderground v.1.15,2013-07-17 15:49:00,
2013-07-17 07:55:00,57.0,53.8,30.07,ENE,61,2.0,11.0,89,0.00,,,0.00,Wunderground v.1.15,2013-07-17 15:55:00,
2013-07-17 08:00:00,57.1,54.2,30.06,NNE,27,2.0,11.0,90,0.00,,,0.00,Wunderground v.1.15,2013-07-17 16:00:00,
2013-07-17 08:06:00,57.2,54.3,30.06,NNE,13,2.0,11.0,90,0.00,,,0.00,Wunderground v.1.15,2013-07-17 16:06:00,
2013-07-17 08:13:00,57.0,53.8,30.06,NNE,32,2.0,11.0,89,0.00,,,0.00,Wunderground v.1.15,2013-07-17 16:13:00,
2013-07-17 08:18:00,56.9,53.7,30.07,NNE,33,3.0,11.0,89,0.00,,,0.00,Wunderground v.1.15,2013-07-17 16:18:00,
2013-07-17 08:24:00,56.8,53.6,30.07,NE,34,2.0,11.0,89,0.00,,,0.00,Wunderground v.1.15,2013-07-17 16:24:00,
2013-07-17 08:30:00,56.7,53.8,30.07,NE,47,2.0,5.0,90,0.00,,,0.00,Wunderground v.1.15,2013-07-17 16:30:00,
2013-07-17 08:36:00,56.8,53.9,30.06,NE,34,2.0,11.0,90,0.00,,,0.00,Wunderground v.1.15,2013-07-17 16:36:00,
2013-07-17 08:42:00,56.9,54.0,30.07,NE,41,3.0,11.0,90,0.00,,,0.00,Wunderground v.1.15,2013-07-17 16:42:00,
2013-07-17 08:47:00,57.2,54.3,30.07,NNW,347,3.0,11.0,90,0.00,,,0.00,Wunderground v.1.15,2013-07-17 16:47:00,
2013-07-17 08:53:00,57.2,54.0,30.07,NNE,25,3.0,11.0,89,0.00,,,0.00,Wunderground v.1.15,2013-07-17 16:53:00,
2013-07-17 08:59:00,57.2,54.0,30.06,North,354,3.0,11.0,89,0.00,,,0.00,Wunderground v.1.15,2013-07-17 16:59:00,
2013-07-17 09:04:00,57.2,54.0,30.07,NNW,345,3.0,11.0,89,0.00,,,0.00,Wunderground v.1.15,2013-07-17 17:04:00,
2013-07-17 09:10:00,57.2,54.0,30.06,NNW,333,4.0,11.0,89,0.00,,,0.00,Wunderground v.1.15,2013-07-17 17:10:00,
2013-07-17 09:16:00,57.3,54.1,30.06,NNW,335,4.0,11.0,89,0.00,,,0.00,Wunderground v.1.15,2013-07-17 17:16:00,
2013-07-17 09:22:00,57.4,54.2,30.06,NNW,342,3.0,11.0,89,0.00,,,0.00,Wunderground v.1.15,2013-07-17 17:22:00,
2013-07-17 09:28:00,57.5,54.3,30.06,North,360,4.0,11.0,89,0.00,,,0.00,Wunderground v.1.15,2013-07-17 17:28:00,
2013-07-17 09:33:00,57.6,54.4,30.06,North,8,3.0,11.0,89,0.00,,,0.00,Wunderground v.1.15,2013-07-17 17:33:00,
2013-07-17 09:39:00,57.7,54.5,30.06,NNW,345,3.0,11.0,89,0.00,,,0.00,Wunderground v.1.15,2013-07-17 17:39:00,
2013-07-17 09:45:00,58.0,55.1,30.06,NNE,20,4.0,11.0,90,0.00,,,0.00,Wunderground v.1.15,2013-07-17 17:45:00,
2013-07-17 09:50:00,58.2,55.0,30.06,NE,49,4.0,11.0,89,0.00,,,0.00,Wunderground v.1.15,2013-07-17 17:50:00,
2013-07-17 09:56:00,58.6,55.1,30.06,NNE,28,4.0,11.0,88,0.00,,,0.00,Wunderground v.1.15,2013-07-17 17:56:00,
2013-07-17 10:02:00,58.8,55.3,30.06,ENE,65,3.0,11.0,88,0.00,,,0.00,Wunderground v.1.15,2013-07-17 18:02:00,
2013-07-17 10:09:00,59.0,55.1,30.06,NNE,19,3.0,11.0,87,0.00,,,0.00,Wunderground v.1.15,2013-07-17 18:09:00,
2013-07-17 10:14:00,59.1,55.2,30.06,NE,34,3.0,11.0,87,0.00,,,0.00,Wunderground v.1.15,2013-07-17 18:14:00,
2013-07-17 10:20:00,59.1,55.5,30.06,North,6,3.0,11.0,88,0.00,,,0.00,Wunderground v.1.15,2013-07-17 18:20:00,
2013-07-17 10:25:00,59.2,55.3,30.06,NNE,14,3.0,11.0,87,0.00,,,0.00,Wunderground v.1.15,2013-07-17 18:25:00,
2013-07-17 10:30:00,59.0,55.1,30.06,NE,44,3.0,11.0,87,0.00,,,0.00,Wunderground v.1.15,2013-07-17 18:30:00,
2013-07-17 10:35:00,59.0,55.1,30.06,North,1,3.0,11.0,87,0.00,,,0.00,Wunderground v.1.15,2013-07-17 18:35:00,
2013-07-17 10:40:00,59.2,55.6,30.06,NNE,33,3.0,4.0,88,0.00,,,0.00,Wunderground v.1.15,2013-07-17 18:40:00,
2013-07-17 10:46:00,59.2,55.3,30.05,NNE,27,3.0,11.0,87,0.00,,,0.00,Wunderground v.1.15,2013-07-17 18:46:00,
2013-07-17 10:51:00,59.5,55.6,30.05,North,356,3.0,11.0,87,0.00,,,0.00,Wunderground v.1.15,2013-07-17 18:51:00,
2013-07-17 10:56:00,60.0,56.4,30.05,ENE,64,3.0,11.0,88,0.00,,,0.00,Wunderground v.1.15,2013-07-17 18:56:00,
2013-07-17 11:02:00,60.8,55.9,30.05,East,89,5.0,11.0,84,0.00,,,0.00,Wunderground v.1.15,2013-07-17 19:02:00,
2013-07-17 11:08:00,61.2,56.3,30.05,NE,36,6.0,11.0,84,0.00,,,0.00,Wunderground v.1.15,2013-07-17 19:08:00,
2013-07-17 11:14:00,60.9,55.7,30.06,NE,47,6.0,12.0,83,0.00,,,0.00,Wunderground v.1.15,2013-07-17 19:14:00,
2013-07-17 11:20:00,60.7,55.5,30.06,ENE,68,8.0,11.0,83,0.00,,,0.00,Wunderground v.1.15,2013-07-17 19:20:00,
2013-07-17 11:25:00,60.7,56.2,30.06,ENE,70,6.0,11.0,85,0.00,,,0.00,Wunderground v.1.15,2013-07-17 19:25:00,
2013-07-17 11:31:00,61.1,56.2,30.05,NE,48,4.0,11.0,84,0.00,,,0.00,Wunderground v.1.15,2013-07-17 19:31:00,
2013-07-17 11:37:00,61.7,56.1,30.05,NE,36,4.0,11.0,82,0.00,,,0.00,Wunderground v.1.15,2013-07-17 19:37:00,
2013-07-17 11:42:00,62.1,56.9,30.05,NE,41,6.0,11.0,83,0.00,,,0.00,Wunderground v.1.15,2013-07-17 19:42:00,
2013-07-17 11:47:00,62.0,56.4,30.05,NE,40,6.0,11.0,82,0.00,,,0.00,Wunderground v.1.15,2013-07-17 19:47:00,
2013-07-17 11:53:00,62.0,56.4,30.05,NNE,33,6.0,11.0,82,0.00,,,0.00,Wunderground v.1.15,2013-07-17 19:53:00,
2013-07-17 12:00:00,61.9,56.3,30.05,NNE,29,6.0,6.0,82,0.00,,,0.00,Wunderground v.1.15,2013-07-17 20:00:00,
2013-07-17 12:06:00,62.5,57.3,30.05,ENE,61,6.0,13.0,83,0.00,,,0.00,Wunderground v.1.15,2013-07-17 20:06:00,
2013-07-17 12:11:00,62.9,57.0,30.05,East,80,6.0,11.0,81,0.00,,,0.00,Wunderground v.1.15,2013-07-17 20:11:00,
2013-07-17 12:17:00,63.0,56.7,30.05,NNE,28,6.0,11.0,80,0.00,,,0.00,Wunderground v.1.15,2013-07-17 20:17:00,
2013-07-17 12:23:00,62.9,56.6,30.05,ENE,63,7.0,12.0,80,0.00,,,0.00,Wunderground v.1.15,2013-07-17 20:23:00,
2013-07-17 12:29:00,62.6,56.3,30.04,NNE,15,9.0,12.0,80,0.00,,,0.00,Wunderground v.1.15,2013-07-17 20:29:00,
2013-07-17 12:34:00,63.2,56.6,30.04,ENE,65,7.0,14.0,79,0.00,,,0.00,Wunderground v.1.15,2013-07-17 20:34:00,
2013-07-17 12:40:00,63.7,57.4,30.05,ENE,63,7.0,11.0,80,0.00,,,0.00,Wunderground v.1.15,2013-07-17 20:40:00,
2013-07-17 12:46:00,63.6,56.6,30.05,NE,44,6.0,11.0,78,0.00,,,0.00,Wunderground v.1.15,2013-07-17 20:46:00,
2013-07-17 12:52:00,63.7,57.1,30.04,NNE,29,7.0,11.0,79,0.00,,,0.00,Wunderground v.1.15,2013-07-17 20:52:00,
2013-07-17 12:58:00,63.9,57.3,30.04,NNE,33,6.0,11.0,79,0.00,,,0.00,Wunderground v.1.15,2013-07-17 20:58:00,
2013-07-17 13:03:00,64.2,57.5,30.04,NE,48,5.0,11.0,79,0.00,,,0.00,Wunderground v.1.15,2013-07-17 21:03:00,
2013-07-17 13:09:00,63.8,56.4,30.04,NE,40,6.0,12.0,77,0.00,,,0.00,Wunderground v.1.15,2013-07-17 21:09:00,
2013-07-17 13:15:00,63.4,56.8,30.04,East,81,7.0,12.0,79,0.00,,,0.00,Wunderground v.1.15,2013-07-17 21:15:00,
2013-07-17 13:21:00,63.0,56.0,30.04,NNE,30,7.0,11.0,78,0.00,,,0.00,Wunderground v.1.15,2013-07-17 21:21:00,
2013-07-17 13:26:00,63.5,57.2,30.03,ENE,63,7.0,11.0,80,0.00,,,0.00,Wunderground v.1.15,2013-07-17 21:26:00,
2013-07-17 13:31:00,63.6,56.3,30.04,East,84,8.0,11.0,77,0.00,,,0.00,Wunderground v.1.15,2013-07-17 21:31:00,
2013-07-17 13:37:00,63.7,56.4,30.04,NNE,23,10.0,12.0,77,0.00,,,0.00,Wunderground v.1.15,2013-07-17 21:37:00,
2013-07-17 13:43:00,64.0,57.0,30.04,East,80,9.0,11.0,78,0.00,,,0.00,Wunderground v.1.15,2013-07-17 21:43:00,
2013-07-17 13:48:00,64.1,56.4,30.04,ENE,70,8.0,15.0,76,0.00,,,0.00,Wunderground v.1.15,2013-07-17 21:48:00,
2013-07-17 13:53:00,64.4,57.4,30.04,ENE,58,8.0,13.0,78,0.00,,,0.00,Wunderground v.1.15,2013-07-17 21:53:00,
2013-07-17 13:59:00,64.2,57.2,30.03,East,101,7.0,13.0,78,0.00,,,0.00,Wunderground v.1.15,2013-07-17 21:59:00,
2013-07-17 14:04:00,64.5,57.5,30.04,NE,53,8.0,11.0,78,0.00,,,0.00,Wunderground v.1.15,2013-07-17 22:04:00,
2013-07-17 14:10:00,65.0,58.0,30.04,ENE,71,8.0,8.0,78,0.00,,,0.00,Wunderground v.1.15,2013-07-17 22:10:00,
2013-07-17 14:16:00,65.5,57.4,30.04,NE,48,7.0,14.0,75,0.00,,,0.00,Wunderground v.1.15,2013-07-17 22:16:00,
2013-07-17 14:21:00,65.6,57.8,30.04,ENE,58,8.0,11.0,76,0.00,,,0.00,Wunderground v.1.15,2013-07-17 22:21:00,
2013-07-17 14:27:00,65.3,56.8,30.04,ENE,72,7.0,12.0,74,0.00,,,0.00,Wunderground v.1.15,2013-07-17 22:27:00,
2013-07-17 14:33:00,64.6,56.5,30.04,ENE,77,8.0,11.0,75,0.00,,,0.00,Wunderground v.1.15,2013-07-17 22:33:00,
2013-07-17 14:38:00,64.2,56.8,30.03,ENE,68,7.0,11.0,77,0.00,,,0.00,Wunderground v.1.15,2013-07-17 22:38:00,
2013-07-17 14:43:00,64.1,56.7,30.04,NNE,29,7.0,15.0,77,0.00,,,0.00,Wunderground v.1.15,2013-07-17 22:43:00,
2013-07-17 14:49:00,63.7,56.7,30.04,ENE,73,8.0,11.0,78,0.00,,,0.00,Wunderground v.1.15,2013-07-17 22:49:00,
2013-07-17 14:54:00,63.7,56.7,30.03,NE,48,8.0,11.0,78,0.00,,,0.00,Wunderground v.1.15,2013-07-17 22:54:00,
2013-07-17 15:00:00,64.2,57.2,30.04,ENE,70,8.0,11.0,78,0.00,,,0.00,Wunderground v.1.15,2013-07-17 23:00:00,
2013-07-17 15:06:00,64.1,56.7,30.03,ENE,63,9.0,11.0,77,0.00,,,0.00,Wunderground v.1.15,2013-07-17 23:06:00,
2013-07-17 15:12:00,64.5,57.5,30.03,ENE,78,8.0,11.0,78,0.00,,,0.00,Wunderground v.1.15,2013-07-17 23:12:00,
2013-07-17 15:17:00,64.7,57.0,30.03,NNE,23,6.0,11.0,76,0.00,,,0.00,Wunderground v.1.15,2013-07-17 23:17:00,
2013-07-17 15:23:00,64.4,57.0,30.04,East,79,6.0,11.0,77,0.00,,,0.00,Wunderground v.1.15,2013-07-17 23:23:00,
2013-07-17 15:29:00,64.2,56.8,30.03,NNE,30,6.0,11.0,77,0.00,,,0.00,Wunderground v.1.15,2013-07-17 23:29:00,
2013-07-17 15:35:00,64.1,57.5,30.04,NE,46,6.0,11.0,79,0.00,,,0.00,Wunderground v.1.15,2013-07-17 23:35:00,
2013-07-17 15:40:00,64.2,56.5,30.04,ENE,68,4.0,4.0,76,0.00,,,0.00,Wunderground v.1.15,2013-07-17 23:40:00,
2013-07-17 15:45:00,63.0,56.4,30.04,NNE,16,5.0,11.0,79,0.00,,,0.00,Wunderground v.1.15,2013-07-17 23:45:00,
2013-07-17 15:51:00,63.1,56.5,30.04,NNE,27,5.0,7.0,79,0.00,,,0.00,Wunderground v.1.15,2013-07-17 23:51:00,
2013-07-17 15:56:00,62.6,56.3,30.04,NNE,24,4.0,11.0,80,0.00,,,0.00,Wunderground v.1.15,2013-07-17 23:56:00,
2013-07-17 16:02:00,62.6,56.3,30.04,NE,44,9.0,19.0,80,0.00,,,0.00,Wunderground v.1.15,2013-07-18 00:02:00,
2013-07-17 16:07:00,62.4,56.1,30.04,NE,53,11.0,19.0,80,0.00,,,0.00,Wunderground v.1.15,2013-07-18 00:07:00,
2013-07-17 16:13:00,62.2,55.3,30.04,ENE,76,10.0,17.0,78,0.00,,,0.00,Wunderground v.1.15,2013-07-18 00:13:00,
2013-07-17 16:19:00,62.2,55.6,30.04,East,82,12.0,17.0,79,0.00,,,0.00,Wunderground v.1.15,2013-07-18 00:19:00,
2013-07-17 16:24:00,62.5,55.5,30.04,East,82,11.0,18.0,78,0.00,,,0.00,Wunderground v.1.15,2013-07-18 00:24:00,
2013-07-17 16:30:00,62.7,55.7,30.04,ENE,63,13.0,14.0,78,0.00,,,0.00,Wunderground v.1.15,2013-07-18 00:30:00,
2013-07-17 16:36:00,62.6,56.0,30.03,NNE,32,11.0,14.0,79,0.00,,,0.00,Wunderground v.1.15,2013-07-18 00:36:00,
2013-07-17 16:42:00,60.8,55.6,30.03,NE,49,7.0,11.0,83,0.00,,,0.00,Wunderground v.1.15,2013-07-18 00:42:00,
2013-07-17 16:47:00,60.3,56.1,30.04,ENE,74,6.0,11.0,86,0.00,,,0.00,Wunderground v.1.15,2013-07-18 00:47:00,
2013-07-17 16:53:00,61.4,56.5,30.03,ENE,60,4.0,11.0,84,0.00,,,0.00,Wunderground v.1.15,2013-07-18 00:53:00,
2013-07-17 16:59:00,61.7,56.5,30.03,NE,39,6.0,11.0,83,0.00,,,0.00,Wunderground v.1.15,2013-07-18 00:59:00,
2013-07-17 17:04:00,62.1,56.2,30.03,NE,37,6.0,11.0,81,0.00,,,0.00,Wunderground v.1.15,2013-07-18 01:04:00,
2013-07-17 17:10:00,62.0,56.1,30.03,East,94,5.0,11.0,81,0.00,,,0.00,Wunderground v.1.15,2013-07-18 01:10:00,
2013-07-17 17:17:00,62.0,56.1,30.03,ENE,65,6.0,11.0,81,0.00,,,0.00,Wunderground v.1.15,2013-07-18 01:17:00,
2013-07-17 17:23:00,62.4,56.8,30.03,East,90,5.0,11.0,82,0.00,,,0.00,Wunderground v.1.15,2013-07-18 01:23:00,
2013-07-17 17:28:00,62.0,55.8,30.04,ENE,78,5.0,11.0,80,0.00,,,0.00,Wunderground v.1.15,2013-07-18 01:28:00,
2013-07-17 17:34:00,62.3,56.0,30.03,ENE,68,5.0,11.0,80,0.00,,,0.00,Wunderground v.1.15,2013-07-18 01:34:00,
2013-07-17 17:40:00,62.5,55.9,30.03,NE,44,4.0,4.0,79,0.00,,,0.00,Wunderground v.1.15,2013-07-18 01:40:00,
2013-07-17 17:46:00,61.9,56.0,30.03,North,1,6.0,11.0,81,0.00,,,0.00,Wunderground v.1.15,2013-07-18 01:46:00,
2013-07-17 17:51:00,61.5,55.6,30.03,ENE,67,7.0,11.0,81,0.00,,,0.00,Wunderground v.1.15,2013-07-18 01:51:00,
2013-07-17 17:57:00,61.8,56.6,30.03,NE,53,6.0,11.0,83,0.00,,,0.00,Wunderground v.1.15,2013-07-18 01:57:00,
2013-07-17 18:03:00,61.9,56.0,30.03,ENE,63,5.0,11.0,81,0.00,,,0.00,Wunderground v.1.15,2013-07-18 02:03:00,
2013-07-17 18:08:00,62.0,56.1,30.03,East,84,5.0,11.0,81,0.00,,,0.00,Wunderground v.1.15,2013-07-18 02:08:00,
2013-07-17 18:14:00,61.6,55.7,30.03,East,94,6.0,11.0,81,0.00,,,0.00,Wunderground v.1.15,2013-07-18 02:14:00,
2013-07-17 18:21:00,61.3,55.4,30.04,ENE,59,6.0,8.0,81,0.00,,,0.00,Wunderground v.1.15,2013-07-18 02:21:00,
2013-07-17 18:27:00,60.8,54.9,30.04,ENE,65,5.0,11.0,81,0.00,,,0.00,Wunderground v.1.15,2013-07-18 02:27:00,
2013-07-17 18:32:00,60.6,55.1,30.04,East,79,4.0,11.0,82,0.00,,,0.00,Wunderground v.1.15,2013-07-18 02:32:00,
2013-07-17 18:38:00,59.9,54.7,30.04,ENE,68,7.0,11.0,83,0.00,,,0.00,Wunderground v.1.15,2013-07-18 02:38:00,
2013-07-17 18:44:00,59.7,54.9,30.04,NNE,16,8.0,11.0,84,0.00,,,0.00,Wunderground v.1.15,2013-07-18 02:44:00,
2013-07-17 18:50:00,60.0,55.2,30.04,NE,53,8.0,11.0,84,0.00,,,0.00,Wunderground v.1.15,2013-07-18 02:50:00,
2013-07-17 18:55:00,60.0,55.2,30.04,ENE,65,9.0,11.0,84,0.00,,,0.00,Wunderground v.1.15,2013-07-18 02:55:00,
2013-07-17 19:01:00,59.8,54.6,30.05,ENE,64,7.0,11.0,83,0.00,,,0.00,Wunderground v.1.15,2013-07-18 03:01:00,
2013-07-17 19:07:00,59.6,54.8,30.04,ENE,68,6.0,11.0,84,0.00,,,0.00,Wunderground v.1.15,2013-07-18 03:07:00,
2013-07-17 19:12:00,60.0,55.2,30.04,East,99,6.0,11.0,84,0.00,,,0.00,Wunderground v.1.15,2013-07-18 03:12:00,
2013-07-17 19:18:00,61.0,55.5,30.04,NNE,20,6.0,11.0,82,0.00,,,0.00,Wunderground v.1.15,2013-07-18 03:18:00,
2013-07-17 19:25:00,61.6,55.7,30.04,ENE,69,5.0,11.0,81,0.00,,,0.00,Wunderground v.1.15,2013-07-18 03:25:00,
2013-07-17 19:31:00,62.0,55.8,30.04,NNE,26,4.0,11.0,80,0.00,,,0.00,Wunderground v.1.15,2013-07-18 03:31:00,
2013-07-17 19:36:00,61.5,55.6,30.04,ENE,76,4.0,11.0,81,0.00,,,0.00,Wunderground v.1.15,2013-07-18 03:36:00,
2013-07-17 19:42:00,60.8,54.9,30.05,ENE,57,6.0,13.0,81,0.00,,,0.00,Wunderground v.1.15,2013-07-18 03:42:00,
2013-07-17 19:48:00,60.5,55.0,30.04,East,89,6.0,13.0,82,0.00,,,0.00,Wunderground v.1.15,2013-07-18 03:48:00,
2013-07-17 19:54:00,60.0,54.8,30.04,NE,37,6.0,11.0,83,0.00,,,0.00,Wunderground v.1.15,2013-07-18 03:54:00,
2013-07-17 19:59:00,60.1,54.9,30.05,ENE,70,5.0,11.0,83,0.00,,,0.00,Wunderground v.1.15,2013-07-18 03:59:00,
2013-07-17 20:01:00,60.0,54.8,30.05,East,87,5.0,11.0,83,0.00,,,0.00,Wunderground v.1.15,2013-07-18 04:01:00,
2013-07-17 20:02:00,60.0,54.8,30.05,ENE,65,4.0,11.0,83,0.00,,,0.00,Wunderground v.1.15,2013-07-18 04:02:00,
2013-07-17 20:03:00,59.9,54.7,30.05,ENE,59,5.0,11.0,83,0.00,,,0.00,Wunderground v.1.15,2013-07-18 04:03:00,
2013-07-17 20:09:00,59.9,55.1,30.05,ENE,74,4.0,11.0,84,0.00,,,0.00,Wunderground v.1.15,2013-07-18 04:09:00,
2013-07-17 20:10:00,59.9,55.1,30.05,NE,55,4.0,11.0,84,0.00,,,0.00,Wunderground v.1.15,2013-07-18 04:10:00,
2013-07-17 20:15:00,59.5,54.7,30.05,East,92,4.0,11.0,84,0.00,,,0.00,Wunderground v.1.15,2013-07-18 04:15:00,
2013-07-17 20:20:00,59.1,54.6,30.05,NE,49,5.0,11.0,85,0.00,,,0.00,Wunderground v.1.15,2013-07-18 04:20:00,
2013-07-17 20:26:00,59.2,54.7,30.05,ENE,59,4.0,11.0,85,0.00,,,0.00,Wunderground v.1.15,2013-07-18 04:26:00,
2013-07-17 20:32:00,59.6,54.8,30.05,ENE,75,6.0,11.0,84,0.00,,,0.00,Wunderground v.1.15,2013-07-18 04:32:00,
2013-07-17 20:38:00,59.3,54.8,30.05,ENE,60,7.0,11.0,85,0.00,,,0.00,Wunderground v.1.15,2013-07-18 04:38:00,
2013-07-17 20:43:00,58.9,54.4,30.05,NE,44,6.0,11.0,85,0.00,,,0.00,Wunderground v.1.15,2013-07-18 04:43:00,
2013-07-17 20:49:00,58.6,54.4,30.06,East,80,5.0,11.0,86,0.00,,,0.00,Wunderground v.1.15,2013-07-18 04:49:00,
2013-07-17 20:55:00,58.4,54.2,30.06,ENE,62,5.0,11.0,86,0.00,,,0.00,Wunderground v.1.15,2013-07-18 04:55:00,
2013-07-17 21:01:00,58.3,54.4,30.05,NE,51,4.0,11.0,87,0.00,,,0.00,Wunderground v.1.15,2013-07-18 05:01:00,
2013-07-17 21:07:00,58.2,54.3,30.06,NE,37,3.0,11.0,87,0.00,,,0.00,Wunderground v.1.15,2013-07-18 05:07:00,
2013-07-17 21:12:00,58.1,54.2,30.06,ENE,58,2.0,11.0,87,0.00,,,0.00,Wunderground v.1.15,2013-07-18 05:12:00,
2013-07-17 21:18:00,58.0,54.2,30.06,NE,37,2.0,11.0,87,0.00,,,0.00,Wunderground v.1.15,2013-07-18 05:18:00,
2013-07-17 21:23:00,57.9,54.1,30.06,ENE,64,3.0,11.0,87,0.00,,,0.00,Wunderground v.1.15,2013-07-18 05:23:00,
2013-07-17 21:28:00,57.8,54.3,30.06,ENE,65,4.0,11.0,88,0.00,,,0.00,Wunderground v.1.15,2013-07-18 05:28:00,
2013-07-17 21:34:00,57.5,54.0,30.06,NE,46,4.0,11.0,88,0.00,,,0.00,Wunderground v.1.15,2013-07-18 05:34:00,
2013-07-17 21:40:00,57.2,53.7,30.06,NE,56,3.0,11.0,88,0.00,,,0.00,Wunderground v.1.15,2013-07-18 05:40:00,
2013-07-17 21:45:00,57.0,53.8,30.06,NE,37,2.0,11.0,89,0.00,,,0.00,Wunderground v.1.15,2013-07-18 05:45:00,
2013-07-17 21:51:00,56.9,53.7,30.06,NE,56,2.0,11.0,89,0.00,,,0.00,Wunderground v.1.15,2013-07-18 05:51:00,
2013-07-17 21:56:00,56.8,53.6,30.06,ENE,63,2.0,11.0,89,0.00,,,0.00,Wunderground v.1.15,2013-07-18 05:56:00,
2013-07-17 22:02:00,56.7,53.8,30.06,East,85,3.0,11.0,90,0.00,,,0.00,Wunderground v.1.15,2013-07-18 06:02:00,
2013-07-17 22:08:00,56.7,53.8,30.06,NE,47,3.0,11.0,90,0.00,,,0.00,Wunderground v.1.15,2013-07-18 06:08:00,
2013-07-17 22:13:00,56.6,53.7,30.06,NE,56,2.0,11.0,90,0.00,,,0.00,Wunderground v.1.15,2013-07-18 06:13:00,
2013-07-17 22:19:00,56.5,53.6,30.06,ENE,72,2.0,11.0,90,0.00,,,0.00,Wunderground v.1.15,2013-07-18 06:19:00,
2013-07-17 22:25:00,56.3,53.4,30.06,ENE,62,2.0,11.0,90,0.00,,,0.00,Wunderground v.1.15,2013-07-18 06:25:00,
2013-07-17 22:30:00,56.3,53.7,30.06,NE,51,2.0,11.0,91,0.00,,,0.00,Wunderground v.1.15,2013-07-18 06:30:00,
2013-07-17 22:36:00,56.1,53.2,30.06,NE,34,3.0,11.0,90,0.00,,,0.00,Wunderground v.1.15,2013-07-18 06:36:00,
2013-07-17 22:42:00,55.8,53.2,30.07,NE,37,2.0,11.0,91,0.00,,,0.00,Wunderground v.1.15,2013-07-18 06:42:00,
2013-07-17 22:48:00,55.5,52.9,30.07,ENE,65,2.0,11.0,91,0.00,,,0.00,Wunderground v.1.15,2013-07-18 06:48:00,
2013-07-17 22:53:00,55.5,53.2,30.07,ENE,78,2.0,11.0,92,0.00,,,0.00,Wunderground v.1.15,2013-07-18 06:53:00,
2013-07-17 22:59:00,55.7,53.1,30.07,ENE,69,2.0,2.0,91,0.00,,,0.00,Wunderground v.1.15,2013-07-18 06:59:00,
2013-07-17 23:05:00,55.8,53.2,30.07,East,99,1.0,11.0,91,0.00,,,0.00,Wunderground v.1.15,2013-07-18 07:05:00,
2013-07-17 23:11:00,55.8,53.2,30.07,ENE,77,2.0,11.0,91,0.00,,,0.00,Wunderground v.1.15,2013-07-18 07:11:00,
2013-07-17 23:17:00,55.6,53.0,30.07,East,85,2.0,11.0,91,0.00,,,0.00,Wunderground v.1.15,2013-07-18 07:17:00,
2013-07-17 23:22:00,55.4,52.8,30.07,East,86,3.0,11.0,91,0.00,,,0.00,Wunderground v.1.15,2013-07-18 07:22:00,
2013-07-17 23:28:00,55.3,53.0,30.08,East,101,4.0,11.0,92,0.00,,,0.00,Wunderground v.1.15,2013-07-18 07:28:00,
2013-07-17 23:34:00,55.5,53.2,30.08,East,100,4.0,11.0,92,0.00,,,0.00,Wunderground v.1.15,2013-07-18 07:34:00,
2013-07-17 23:40:00,55.7,53.4,30.08,ENE,71,5.0,11.0,92,0.00,,,0.00,Wunderground v.1.15,2013-07-18 07:40:00,
2013-07-17 23:45:00,55.8,53.2,30.08,East,79,4.0,11.0,91,0.00,,,0.00,Wunderground v.1.15,2013-07-18 07:45:00,
2013-07-17 23:51:00,55.8,53.2,30.08,ESE,107,4.0,11.0,91,0.00,,,0.00,Wunderground v.1.15,2013-07-18 07:51:00,
2013-07-17 23:57:00,55.7,53.1,30.08,East,100,4.0,11.0,91,0.00,,,0.00,Wunderground v.1.15,2013-07-18 07:57:00,